Time;durP1;ratioP1;P1;durP2;ratioP2;P2;SDS_P1;SDS_P2;PMS_P1;PMS_P2;Temp;Humidity;BMP_temperature;BMP_pressure;BME280_temperature;BME280_humidity;BME280_pressure;Samples;Min_cycle;Max_cycle;Signal;HPM_P1;HPM_P2
2022/11/15 00:00:10;;;;;;;;;;;;;;;;;;5092845;28;19943;-88
2022/11/15 00:02:56;;;;;;;;;;;;;;;;;;5096063;28;19947;-86
2022/11/15 00:05:47;;;;;;;;;;;;;;;;;;5091118;28;20288;-87
2022/11/15 00:08:33;;;;;;;;;;;;;;;;;;5076798;28;19927;-87
2022/11/15 00:11:24;;;;;;;;;;;;;;;;;;5081174;28;19931;-87
2022/11/15 00:14:10;;;;;;;;;;;;;;;;;;5093626;28;19934;-87
2022/11/15 00:17:01;;;;;;;;;;;;;;;;;;5096918;28;19935;-88
2022/11/15 00:19:52;;;;;;;;;;;;;;;;;;5088242;28;19927;-87
2022/11/15 00:22:43;;;;;;;;;;;;;;;;;;5100112;28;20272;-88
2022/11/15 00:25:29;;;;;;;;;;;;;;;;;;5077247;28;20442;-87
2022/11/15 00:28:15;;;;;;;;;;;;;;;;;;5093532;28;19931;-87
2022/11/15 00:31:01;;;;;;;;;;;;;;;;;;5078086;28;19927;-87
2022/11/15 00:33:53;;;;;;;;;;;;;;;;;;5081010;28;19957;-88
2022/11/15 00:36:39;;;;;;;;;;;;;;;;;;5077286;28;20276;-87
2022/11/15 00:39:30;;;;;;;;;;;;;;;;;;5085084;28;19943;-87
2022/11/15 00:42:16;;;;;;;;;;;;;;;;;;5077548;28;19931;-88
2022/11/15 00:45:02;;;;;;;;;;;;;;;;;;5073766;28;19935;-87
2022/11/15 00:47:53;;;;;;;;;;;;;;;;;;5084032;28;19927;-87
2022/11/15 00:50:39;;;;;;;;;;;;;;;;;;5078094;28;19927;-86
2022/11/15 00:53:25;;;;;;;;;;;;;;;;;;5086303;28;19931;-87
2022/11/15 00:56:11;;;;;;;;;;;;;;;;;;5074094;28;19928;-88
2022/11/15 00:58:57;;;;;;;;;;;;;;;;;;5080735;28;19927;-87
2022/11/15 01:01:43;;;;;;;;;;;;;;;;;;5085371;28;19930;-87
2022/11/15 01:04:29;;;;;;;;;;;;;;;;;;5089923;28;19927;-86
2022/11/15 01:07:15;;;;;;;;;;;;;;;;;;5103076;28;19927;-87
2022/11/15 01:10:06;;;;;;;;;;;;;;;;;;5103251;28;19930;-87
2022/11/15 01:12:57;;;;;;;;;;;;;;;;;;5080418;28;19928;-87
2022/11/15 01:15:43;;;;;;;;;;;;;;;;;;5087957;28;20391;-86
2022/11/15 01:18:29;;;;;;;;;;;;;;;;;;5079854;28;19943;-87
2022/11/15 01:21:20;;;;;;;;;;;;;;;;;;5086925;28;19943;-87
2022/11/15 01:24:11;;;;;;;;;;;;;;;;;;5080453;28;19928;-86
2022/11/15 01:27:02;;;;;;;;;;;;;;;;;;5079931;28;19928;-87
2022/11/15 01:29:53;;;;;;;;;;;;;;;;;;5086671;28;19930;-86
2022/11/15 01:32:44;;;;;;;;;;;;;;;;;;5080259;28;19927;-86
2022/11/15 01:35:30;;;;;;;;;;;;;;;;;;5073809;28;19931;-86
2022/11/15 01:38:16;;;;;;;;;;;;;;;;;;5082586;28;19936;-86
2022/11/15 01:41:07;;;;;;;;;;;;;;;;;;5093836;28;20287;-86
2022/11/15 01:43:58;;;;;;;;;;;;;;;;;;5080225;28;19942;-86
2022/11/15 01:46:49;;;;;;;;;;;;;;;;;;5098054;28;19927;-86
2022/11/15 01:49:35;;;;;;;;;;;;;;;;;;5075221;28;19928;-86
2022/11/15 01:52:21;;;;;;;;;;;;;;;;;;5076625;28;19928;-86
2022/11/15 01:55:07;;;;;;;;;;;;;;;;;;5076525;28;19927;-86
2022/11/15 01:57:58;;;;;;;;;;;;;;;;;;5086138;28;19928;-86
2022/11/15 02:00:44;;;;;;;;;;;;;;;;;;5083590;28;19927;-86
2022/11/15 02:03:35;;;;;;;;;;;;;;;;;;5102286;28;20276;-85
2022/11/15 02:06:21;;;;;;;;;;;;;;;;;;5096314;28;19953;-86
2022/11/15 02:09:13;;;;;;;;;;;;;;;;;;5093337;28;20753;-86
2022/11/15 02:11:59;;;;;;;;;;;;;;;;;;5090049;28;19927;-85
2022/11/15 02:14:45;;;;;;;;;;;;;;;;;;5099917;28;19927;-85
2022/11/15 02:17:31;;;;;;;;;;;;;;;;;;5082736;28;19928;-85
2022/11/15 02:20:17;;;;;;;;;;;;;;;;;;5076397;28;19931;-86
2022/11/15 02:23:08;;;;;;;;;;;;;;;;;;5083716;28;19927;-85
2022/11/15 02:25:54;;;;;;;;;;;;;;;;;;5094057;28;19943;-86
2022/11/15 02:28:45;;;;;;;;;;;;;;;;;;5103293;28;19927;-86
2022/11/15 02:31:31;;;;;;;;;;;;;;;;;;5091616;28;19942;-85
2022/11/15 02:34:22;;;;;;;;;;;;;;;;;;5116206;28;20475;-86
2022/11/15 02:37:08;;;;;;;;;;;;;;;;;;5102084;28;19927;-85
2022/11/15 02:39:54;;;;;;;;;;;;;;;;;;5076960;28;19928;-85
2022/11/15 02:45:44;;;;;;;;;;;;;;;;;;5076145;28;19943;-86
2022/11/15 02:48:30;;;;;;;;;;;;;;;;;;5076052;28;19944;-85
2022/11/15 02:51:16;;;;;;;;;;;;;;;;;;5108105;28;20399;-85
2022/11/15 02:54:02;;;;;;;;;;;;;;;;;;5090069;28;20542;-85
2022/11/15 02:56:53;;;;;;;;;;;;;;;;;;5094231;28;19943;-84
2022/11/15 02:59:44;;;;;;;;;;;;;;;;;;5093771;28;19927;-84
2022/11/15 03:02:35;;;;;;;;;;;;;;;;;;5085079;28;19928;-84
2022/11/15 03:05:26;;;;;;;;;;;;;;;;;;5088066;28;19927;-84
2022/11/15 03:08:13;;;;;;;;;;;;;;;;;;5081083;28;19927;-85
2022/11/15 03:11:04;;;;;;;;;;;;;;;;;;5082726;28;19927;-85
2022/11/15 03:13:51;;;;;;;;;;;;;;;;;;5075876;28;20118;-84
2022/11/15 03:16:37;;;;;;;;;;;;;;;;;;5079808;28;19931;-85
2022/11/15 03:19:28;;;;;;;;;;;;;;;;;;5080824;28;19943;-85
2022/11/15 03:22:19;;;;;;;;;;;;;;;;;;5082377;28;19927;-84
2022/11/15 03:25:05;;;;;;;;;;;;;;;;;;5084462;28;19927;-85
2022/11/15 03:27:51;;;;;;;;;;;;;;;;;;5082375;28;19927;-85
2022/11/15 03:30:37;;;;;;;;;;;;;;;;;;5080783;28;19947;-85
2022/11/15 03:33:23;;;;;;;;;;;;;;;;;;5079658;28;19927;-85
2022/11/15 03:36:09;;;;;;;;;;;;;;;;;;5075377;28;19927;-84
2022/11/15 03:38:55;;;;;;;;;;;;;;;;;;5075272;28;19928;-84
2022/11/15 03:41:41;;;;;;;;;;;;;;;;;;5074975;28;19928;-86
2022/11/15 03:44:27;;;;;;;;;;;;;;;;;;5089014;28;19930;-85
2022/11/15 03:47:18;;;;;;;;;;;;;;;;;;5101109;28;19927;-85
2022/11/15 03:50:04;;;;;;;;;;;;;;;;;;5083386;28;19928;-84
2022/11/15 03:52:55;;;;;;;;;;;;;;;;;;5108123;28;19927;-85
2022/11/15 03:55:42;;;;;;;;;;;;;;;;;;5074807;28;20295;-84
2022/11/15 03:58:28;;;;;;;;;;;;;;;;;;5074742;28;20320;-84
2022/11/15 04:01:14;;;;;;;;;;;;;;;;;;5077511;28;19938;-84
2022/11/15 04:04:00;;;;;;;;;;;;;;;;;;5076957;28;19927;-84
2022/11/15 04:06:46;;;;;;;;;;;;;;;;;;5083546;28;19927;-83
2022/11/15 04:09:32;;;;;;;;;;;;;;;;;;5086700;28;19927;-84
2022/11/15 04:12:30;;;;;;;;;;;;;;;;;;5075353;28;19927;-84
2022/11/15 04:15:21;;;;;;;;;;;;;;;;;;5086032;28;20391;-84
2022/11/15 04:18:07;;;;;;;;;;;;;;;;;;5091722;28;20287;-85
2022/11/15 04:24:13;;;;;;;;;;;;;;;;;;5090592;28;19927;-83
2022/11/15 04:27:04;;;;;;;;;;;;;;;;;;5101359;28;19943;-84
2022/11/15 04:29:55;;;;;;;;;;;;;;;;;;5111281;28;19927;-84
2022/11/15 04:32:41;;;;;;;;;;;;;;;;;;5104737;28;19926;-84
2022/11/15 04:35:32;;;;;;;;;;;;;;;;;;5110112;28;19931;-85
2022/11/15 04:38:17;;;;;;;;;;;;;;;;;;5086153;28;19931;-85
2022/11/15 04:41:08;;;;;;;;;;;;;;;;;;5096492;28;19931;-85
2022/11/15 04:43:59;;;;;;;;;;;;;;;;;;5085451;28;19927;-84
2022/11/15 04:46:51;;;;;;;;;;;;;;;;;;5086289;28;19927;-84
2022/11/15 04:49:43;;;;;;;;;;;;;;;;;;5080521;28;19927;-85
2022/11/15 04:52:30;;;;;;;;;;;;;;;;;;5080323;28;19927;-83
2022/11/15 04:55:16;;;;;;;;;;;;;;;;;;5094444;28;19927;-84
2022/11/15 04:58:02;;;;;;;;;;;;;;;;;;5088593;28;19927;-84
2022/11/15 05:00:48;;;;;;;;;;;;;;;;;;5097190;28;19942;-84
2022/11/15 05:06:43;;;;;;;;;;;;;;;;;;5080577;28;19927;-84
2022/11/15 05:09:29;;;;;;;;;;;;;;;;;;5073846;28;19931;-85
2022/11/15 05:12:20;;;;;;;;;;;;;;;;;;5092186;28;19927;-84
2022/11/15 05:15:11;;;;;;;;;;;;;;;;;;5095918;28;19927;-84
2022/11/15 05:18:02;;;;;;;;;;;;;;;;;;5097099;28;19927;-84
2022/11/15 05:20:48;;;;;;;;;;;;;;;;;;5104856;28;19958;-84
2022/11/15 05:23:40;;;;;;;;;;;;;;;;;;5099782;28;19927;-84
2022/11/15 05:26:31;;;;;;;;;;;;;;;;;;5083021;28;19927;-85
2022/11/15 05:29:17;;;;;;;;;;;;;;;;;;5079462;28;20395;-85
2022/11/15 05:32:08;;;;;;;;;;;;;;;;;;5080783;28;19927;-85
2022/11/15 05:34:54;;;;;;;;;;;;;;;;;;5090794;28;19927;-85
2022/11/15 05:37:40;;;;;;;;;;;;;;;;;;5105909;28;19927;-85
2022/11/15 05:40:26;;;;;;;;;;;;;;;;;;5083773;28;19927;-85
2022/11/15 05:43:12;;;;;;;;;;;;;;;;;;5073133;28;19927;-85
2022/11/15 05:45:58;;;;;;;;;;;;;;;;;;5079406;28;19927;-85
2022/11/15 05:48:44;;;;;;;;;;;;;;;;;;5073359;28;19927;-85
2022/11/15 05:51:35;;;;;;;;;;;;;;;;;;5079655;28;19927;-85
2022/11/15 05:54:21;;;;;;;;;;;;;;;;;;5073440;28;20297;-84
2022/11/15 05:57:07;;;;;;;;;;;;;;;;;;5074849;28;19943;-84
2022/11/15 05:59:58;;;;;;;;;;;;;;;;;;5094236;28;20792;-84
2022/11/15 06:02:44;;;;;;;;;;;;;;;;;;5081031;28;19927;-84
2022/11/15 06:05:35;;;;;;;;;;;;;;;;;;5094316;28;19926;-84
2022/11/15 06:08:21;;;;;;;;;;;;;;;;;;5080586;28;19928;-84
2022/11/15 06:11:07;;;;;;;;;;;;;;;;;;5096950;28;19934;-85
2022/11/15 06:13:54;;;;;;;;;;;;;;;;;;5080893;28;19927;-85
2022/11/15 06:16:40;;;;;;;;;;;;;;;;;;5089239;28;19927;-84
2022/11/15 06:19:26;;;;;;;;;;;;;;;;;;5083998;28;20280;-84
2022/11/15 06:22:12;;;;;;;;;;;;;;;;;;5085935;28;19944;-84
2022/11/15 06:25:03;;;;;;;;;;;;;;;;;;5099353;28;19927;-84
2022/11/15 06:27:54;;;;;;;;;;;;;;;;;;5091706;28;20033;-85
2022/11/15 06:30:40;;;;;;;;;;;;;;;;;;5084064;28;19931;-85
2022/11/15 06:33:26;;;;;;;;;;;;;;;;;;5092022;28;19927;-85
2022/11/15 06:36:15;;;;;;;;;;;;;;;;;;5104692;28;19927;-84
2022/11/15 06:39:05;;;;;;;;;;;;;;;;;;5093374;28;19927;-86
2022/11/15 06:41:51;;;;;;;;;;;;;;;;;;5086329;28;19927;-84
2022/11/15 06:44:38;;;;;;;;;;;;;;;;;;5091533;28;19931;-85
2022/11/15 06:47:24;;;;;;;;;;;;;;;;;;5092621;28;19927;-84
2022/11/15 06:50:15;;;;;;;;;;;;;;;;;;5112922;28;19943;-84
2022/11/15 06:53:06;;;;;;;;;;;;;;;;;;5097313;28;19931;-84
2022/11/15 06:55:52;;;;;;;;;;;;;;;;;;5088137;28;20383;-84
2022/11/15 06:58:43;;;;;;;;;;;;;;;;;;5096939;28;19936;-84
2022/11/15 07:01:29;;;;;;;;;;;;;;;;;;5086789;28;19946;-84
2022/11/15 07:04:20;;;;;;;;;;;;;;;;;;5100542;28;19931;-83
2022/11/15 07:07:11;;;;;;;;;;;;;;;;;;5096688;28;19927;-85
2022/11/15 07:09:57;;;;;;;;;;;;;;;;;;5089025;28;20291;-84
2022/11/15 07:12:43;;;;;;;;;;;;;;;;;;5092508;28;19927;-85
2022/11/15 07:15:34;;;;;;;;;;;;;;;;;;5093828;28;19927;-84
2022/11/15 07:18:20;;;;;;;;;;;;;;;;;;5092325;28;19942;-85
2022/11/15 07:21:06;;;;;;;;;;;;;;;;;;5087003;28;19927;-85
2022/11/15 07:23:57;;;;;;;;;;;;;;;;;;5103525;28;20415;-85
2022/11/15 07:26:48;;;;;;;;;;;;;;;;;;5090458;28;19935;-84
2022/11/15 07:29:35;;;;;;;;;;;;;;;;;;5088927;28;19927;-85
2022/11/15 07:32:26;;;;;;;;;;;;;;;;;;5095798;28;19942;-85
2022/11/15 07:35:16;;;;;;;;;;;;;;;;;;5096667;28;19943;-86
2022/11/15 07:38:03;;;;;;;;;;;;;;;;;;5090168;28;19927;-85
2022/11/15 07:40:49;;;;;;;;;;;;;;;;;;5082667;28;20392;-86
2022/11/15 07:43:35;;;;;;;;;;;;;;;;;;5085497;28;20292;-85
2022/11/15 07:46:26;;;;;;;;;;;;;;;;;;5090351;28;19927;-87
2022/11/15 07:49:12;;;;;;;;;;;;;;;;;;5088749;28;19927;-85
2022/11/15 07:51:58;;;;;;;;;;;;;;;;;;5086226;28;19946;-85
2022/11/15 07:54:44;;;;;;;;;;;;;;;;;;5086018;28;19927;-86
2022/11/15 07:57:35;;;;;;;;;;;;;;;;;;5092613;28;20395;-85
2022/11/15 08:00:26;;;;;;;;;;;;;;;;;;5094149;28;19995;-87
2022/11/15 08:03:12;;;;;;;;;;;;;;;;;;5085171;28;20276;-86
2022/11/15 08:05:58;;;;;;;;;;;;;;;;;;5086312;28;19931;-86
2022/11/15 08:08:44;;;;;;;;;;;;;;;;;;5084897;28;19927;-85
2022/11/15 08:11:30;;;;;;;;;;;;;;;;;;5089720;28;20412;-86
2022/11/15 08:14:16;;;;;;;;;;;;;;;;;;5091875;28;19931;-87
2022/11/15 08:17:03;;;;;;;;;;;;;;;;;;5092077;28;19927;-85
2022/11/15 08:19:49;;;;;;;;;;;;;;;;;;5085924;28;19926;-87
2022/11/15 08:22:35;;;;;;;;;;;;;;;;;;5063523;28;19939;-86
2022/11/15 08:25:21;;;;;;;;;;;;;;;;;;5069033;28;19939;-87
2022/11/15 08:28:12;;;;;;;;;;;;;;;;;;5078191;28;19950;-87
2022/11/15 08:30:59;;;;;;;;;;;;;;;;;;5059374;28;19935;-87
2022/11/15 08:33:45;;;;;;;;;;;;;;;;;;5061773;28;20398;-86
2022/11/15 08:36:31;;;;;;;;;;;;;;;;;;5062087;28;20058;-87
2022/11/15 08:39:23;;;;;;;;;;;;;;;;;;5065396;28;20001;-87
2022/11/15 08:42:09;;;;;;;;;;;;;;;;;;5074423;28;19947;-88
2022/11/15 08:44:55;;;;;;;;;;;;;;;;;;5078239;28;19943;-87
2022/11/15 08:47:46;;;;;;;;;;;;;;;;;;5070639;28;19970;-87
2022/11/15 08:50:32;;;;;;;;;;;;;;;;;;5069582;28;19959;-86
2022/11/15 08:53:18;;;;;;;;;;;;;;;;;;5068097;28;19974;-86
2022/11/15 08:56:04;;;;;;;;;;;;;;;;;;5070248;28;19935;-88
2022/11/15 08:58:51;;;;;;;;;;;;;;;;;;5062571;28;20411;-87
2022/11/15 09:01:37;;;;;;;;;;;;;;;;;;5069170;28;19935;-88
2022/11/15 09:04:23;;;;;;;;;;;;;;;;;;5075733;28;19927;-87
2022/11/15 09:07:09;;;;;;;;;;;;;;;;;;5068882;28;19935;-87
2022/11/15 09:09:55;;;;;;;;;;;;;;;;;;5071201;28;19935;-87
2022/11/15 09:12:41;;;;;;;;;;;;;;;;;;5065153;28;19935;-87
2022/11/15 09:15:32;;;;;;;;;;;;;;;;;;5074330;28;19930;-87
2022/11/15 09:18:23;;;;;;;;;;;;;;;;;;5072013;28;19975;-87
2022/11/15 09:21:10;;;;;;;;;;;;;;;;;;5068439;28;19943;-87
2022/11/15 09:24:02;;;;;;;;;;;;;;;;;;5075996;28;20399;-87
2022/11/15 09:26:53;;;;;;;;;;;;;;;;;;5060564;28;20399;-87
2022/11/15 09:29:44;;;;;;;;;;;;;;;;;;5075947;28;19939;-87
2022/11/15 09:32:35;;;;;;;;;;;;;;;;;;5071952;28;20007;-88
2022/11/15 09:35:22;;;;;;;;;;;;;;;;;;5069110;28;19935;-87
2022/11/15 09:38:08;;;;;;;;;;;;;;;;;;5061814;28;19927;-86
2022/11/15 09:40:54;;;;;;;;;;;;;;;;;;5066475;28;19936;-87
2022/11/15 09:43:45;;;;;;;;;;;;;;;;;;5071063;28;19935;-85
2022/11/15 09:46:37;;;;;;;;;;;;;;;;;;5074098;28;19934;-88
2022/11/15 09:49:28;;;;;;;;;;;;;;;;;;5074061;28;19935;-86
2022/11/15 09:52:18;;;;;;;;;;;;;;;;;;5060558;28;19928;-86
2022/11/15 09:54:46;;;;;;;;;;;;;;;;;;5042362;28;20334;-85
2022/11/15 09:57:14;;;;;;;;;;;;;;;;;;5062949;28;19928;-85
2022/11/15 09:59:47;;;;;;;;;;;;;;;;;;5066184;28;19928;-86
2022/11/15 10:02:19;;;;;;;;;;;;;;;;;;5086416;28;19935;-87
2022/11/15 10:04:52;;;;;;;;;;;;;;;;;;5082095;28;21132;-88
2022/11/15 10:07:20;;;;;;;;;;;;;;;;;;5070641;28;20380;-85
2022/11/15 10:09:47;;;;;;;;;;;;;;;;;;5052170;28;19927;-85
2022/11/15 10:12:15;;;;;;;;;;;;;;;;;;5048748;28;19928;-85
2022/11/15 10:14:43;;;;;;;;;;;;;;;;;;5050644;28;19924;-85
2022/11/15 10:17:18;;;;;;;;;;;;;;;;;;5060704;28;19950;-86
2022/11/15 10:19:50;;;;;;;;;;;;;;;;;;5059246;28;20384;-84
2022/11/15 10:22:18;;;;;;;;;;;;;;;;;;5049782;28;19939;-88
2022/11/15 10:24:45;;;;;;;;;;;;;;;;;;5085559;28;19923;-84
2022/11/15 10:27:13;;;;;;;;;;;;;;;;;;5086856;28;21175;-86
2022/11/15 10:29:45;;;;;;;;;;;;;;;;;;5056192;28;19935;-87
2022/11/15 10:32:13;;;;;;;;;;;;;;;;;;5080870;28;19928;-87
2022/11/15 10:34:41;;;;;;;;;;;;;;;;;;5090218;28;19927;-86
2022/11/15 10:37:08;;;;;;;;;;;;;;;;;;5057117;28;19950;-82
2022/11/15 10:39:36;;;;;;;;;;;;;;;;;;5047593;28;19927;-88
2022/11/15 10:42:03;;;;;;;;;;;;;;;;;;5050961;28;20117;-87
2022/11/15 10:44:31;;;;;;;;;;;;;;;;;;5053062;28;19928;-85
2022/11/15 10:46:58;;;;;;;;;;;;;;;;;;5065449;28;19929;-86
2022/11/15 10:49:28;;;;;;;;;;;;;;;;;;5044320;28;19928;-88
2022/11/15 10:51:56;;;;;;;;;;;;;;;;;;5052703;28;19923;-86
2022/11/15 10:54:23;;;;;;;;;;;;;;;;;;5068996;28;19928;-87
2022/11/15 10:56:51;;;;;;;;;;;;;;;;;;5086920;28;19927;-87
2022/11/15 10:59:18;;;;;;;;;;;;;;;;;;5087705;28;19920;-89
2022/11/15 11:01:46;;;;;;;;;;;;;;;;;;5070270;28;19928;-87
2022/11/15 11:04:14;;;;;;;;;;;;;;;;;;5054258;28;19928;-87
2022/11/15 11:06:41;;;;;;;;;;;;;;;;;;5063217;28;20014;-87
2022/11/15 11:09:14;;;;;;;;;;;;;;;;;;5064252;28;19928;-86
2022/11/15 11:11:42;;;;;;;;;;;;;;;;;;5049514;28;19935;-84
2022/11/15 11:14:09;;;;;;;;;;;;;;;;;;5044453;28;19928;-85
2022/11/15 11:16:37;;;;;;;;;;;;;;;;;;5050736;28;19920;-86
2022/11/15 11:19:05;;;;;;;;;;;;;;;;;;5062324;28;19924;-87
2022/11/15 11:21:38;;;;;;;;;;;;;;;;;;5063511;28;19928;-88
2022/11/15 11:24:05;;;;;;;;;;;;;;;;;;5061985;28;19931;-88
2022/11/15 11:26:38;;;;;;;;;;;;;;;;;;5077915;28;19927;-89
2022/11/15 11:29:06;;;;;;;;;;;;;;;;;;5079029;28;19935;-87
2022/11/15 11:31:34;;;;;;;;;;;;;;;;;;5083696;28;19927;-87
2022/11/15 11:34:01;;;;;;;;;;;;;;;;;;5050127;28;20296;-85
2022/11/15 11:36:29;;;;;;;;;;;;;;;;;;5069472;28;19934;-86
2022/11/15 11:38:57;;;;;;;;;;;;;;;;;;5060512;28;19928;-88
2022/11/15 11:41:25;;;;;;;;;;;;;;;;;;5060691;28;19935;-90
2022/11/15 11:43:52;;;;;;;;;;;;;;;;;;5064932;28;20419;-87
2022/11/15 11:46:20;;;;;;;;;;;;;;;;;;5055188;28;19935;-85
2022/11/15 11:48:47;;;;;;;;;;;;;;;;;;5063229;28;19928;-86
2022/11/15 11:51:15;;;;;;;;;;;;;;;;;;5049352;28;20388;-87
2022/11/15 11:53:42;;;;;;;;;;;;;;;;;;5064773;28;19939;-87
2022/11/15 11:56:10;;;;;;;;;;;;;;;;;;5065650;28;19928;-88
2022/11/15 11:58:37;;;;;;;;;;;;;;;;;;5048070;28;19928;-88
2022/11/15 12:01:10;;;;;;;;;;;;;;;;;;5052012;28;19928;-87
2022/11/15 12:03:43;;;;;;;;;;;;;;;;;;5048277;28;19928;-85
2022/11/15 12:06:10;;;;;;;;;;;;;;;;;;5057993;28;19928;-84
2022/11/15 12:08:43;;;;;;;;;;;;;;;;;;5054504;28;20035;-87
2022/11/15 12:11:10;;;;;;;;;;;;;;;;;;5061694;28;19934;-89
2022/11/15 12:13:38;;;;;;;;;;;;;;;;;;5057230;28;19928;-85
2022/11/15 12:16:05;;;;;;;;;;;;;;;;;;5053828;28;20580;-86
2022/11/15 12:18:33;;;;;;;;;;;;;;;;;;5046939;28;19928;-85
2022/11/15 12:21:01;;;;;;;;;;;;;;;;;;5046357;28;19920;-85
2022/11/15 12:23:28;;;;;;;;;;;;;;;;;;5046400;28;20311;-85
2022/11/15 12:26:01;;;;;;;;;;;;;;;;;;5082644;27;20574;-84
2022/11/15 12:28:34;;;;;;;;;;;;;;;;;;5059547;28;19931;-87
2022/11/15 12:31:02;;;;;;;;;;;;;;;;;;5063036;28;19927;-88
2022/11/15 12:33:29;;;;;;;;;;;;;;;;;;5085446;28;19939;-87
2022/11/15 12:35:57;;;;;;;;;;;;;;;;;;5054766;28;19928;-88
2022/11/15 12:38:25;;;;;;;;;;;;;;;;;;5065944;28;19935;-86
2022/11/15 12:40:52;;;;;;;;;;;;;;;;;;5061044;28;20424;-87
2022/11/15 12:43:20;;;;;;;;;;;;;;;;;;5082806;28;19924;-88
2022/11/15 12:45:47;;;;;;;;;;;;;;;;;;5051747;28;19928;-88
2022/11/15 12:48:15;;;;;;;;;;;;;;;;;;5056901;28;19935;-87
2022/11/15 12:50:43;;;;;;;;;;;;;;;;;;5058023;28;19928;-88
2022/11/15 12:53:15;;;;;;;;;;;;;;;;;;5056252;28;19927;-85
2022/11/15 12:55:48;;;;;;;;;;;;;;;;;;5049255;28;19928;-84
2022/11/15 12:58:15;;;;;;;;;;;;;;;;;;5070293;28;19923;-86
2022/11/15 13:00:43;;;;;;;;;;;;;;;;;;5064824;28;19939;-84
2022/11/15 13:03:11;;;;;;;;;;;;;;;;;;5068658;28;20403;-89
2022/11/15 13:05:43;;;;;;;;;;;;;;;;;;5043320;28;19935;-85
2022/11/15 13:08:16;;;;;;;;;;;;;;;;;;5081644;28;19928;-86
2022/11/15 13:10:48;;;;;;;;;;;;;;;;;;5046580;28;19935;-85
2022/11/15 13:13:16;;;;;;;;;;;;;;;;;;5045375;28;20458;-87
2022/11/15 13:15:43;;;;;;;;;;;;;;;;;;5044455;28;20269;-87
2022/11/15 13:18:16;;;;;;;;;;;;;;;;;;5067458;28;19935;-87
2022/11/15 13:20:44;;;;;;;;;;;;;;;;;;5047741;28;20468;-88
2022/11/15 13:23:11;;;;;;;;;;;;;;;;;;5052074;28;19936;-84
2022/11/15 13:25:39;;;;;;;;;;;;;;;;;;5055708;28;19920;-86
2022/11/15 13:28:11;;;;;;;;;;;;;;;;;;5060437;28;19928;-87
2022/11/15 13:30:39;;;;;;;;;;;;;;;;;;5046848;28;20410;-86
2022/11/15 13:33:06;;;;;;;;;;;;;;;;;;5060318;28;20741;-86
2022/11/15 13:35:39;;;;;;;;;;;;;;;;;;5089192;27;20454;-87
2022/11/15 13:38:06;;;;;;;;;;;;;;;;;;5055858;28;19923;-86
2022/11/15 13:40:34;;;;;;;;;;;;;;;;;;5049730;28;21140;-85
2022/11/15 13:43:07;;;;;;;;;;;;;;;;;;5080096;28;19928;-86
2022/11/15 13:45:39;;;;;;;;;;;;;;;;;;5048276;28;19935;-87
2022/11/15 13:48:07;;;;;;;;;;;;;;;;;;5070414;28;19928;-87
2022/11/15 13:50:35;;;;;;;;;;;;;;;;;;5055354;28;19939;-87
2022/11/15 13:53:02;;;;;;;;;;;;;;;;;;5059644;28;19935;-87
2022/11/15 13:55:32;;;;;;;;;;;;;;;;;;5067342;28;19920;-87
2022/11/15 13:58:05;;;;;;;;;;;;;;;;;;5067591;28;19928;-87
2022/11/15 14:00:33;;;;;;;;;;;;;;;;;;5075895;28;19928;-87
2022/11/15 14:03:00;;;;;;;;;;;;;;;;;;5070678;28;19928;-88
2022/11/15 14:05:28;;;;;;;;;;;;;;;;;;5049625;28;20584;-87
2022/11/15 14:08:01;;;;;;;;;;;;;;;;;;5063116;28;19928;-88
2022/11/15 14:10:33;;;;;;;;;;;;;;;;;;5056545;28;19928;-86
2022/11/15 14:13:01;;;;;;;;;;;;;;;;;;5065305;28;19929;-86
2022/11/15 14:15:28;;;;;;;;;;;;;;;;;;5083852;28;20990;-86
2022/11/15 14:17:56;;;;;;;;;;;;;;;;;;5057859;28;19927;-87
2022/11/15 14:20:34;;;;;;;;;;;;;;;;;;5060109;28;19939;-86
2022/11/15 14:23:02;;;;;;;;;;;;;;;;;;5090455;27;19957;-87
2022/11/15 14:25:34;;;;;;;;;;;;;;;;;;5056255;28;19928;-86
2022/11/15 14:28:07;;;;;;;;;;;;;;;;;;5074379;28;21268;-85
2022/11/15 14:30:35;;;;;;;;;;;;;;;;;;5055599;28;19929;-88
2022/11/15 14:33:07;;;;;;;;;;;;;;;;;;5075020;28;19928;-88
2022/11/15 14:35:35;;;;;;;;;;;;;;;;;;5057237;28;21308;-87
2022/11/15 14:38:02;;;;;;;;;;;;;;;;;;5057991;28;19928;-89
2022/11/15 14:40:30;;;;;;;;;;;;;;;;;;5058058;28;20347;-87
2022/11/15 14:42:57;;;;;;;;;;;;;;;;;;5066835;28;19927;-86
2022/11/15 14:45:25;;;;;;;;;;;;;;;;;;5058607;28;19928;-89
2022/11/15 14:47:52;;;;;;;;;;;;;;;;;;5055416;28;19928;-85
2022/11/15 14:50:20;;;;;;;;;;;;;;;;;;5065235;28;20592;-86
2022/11/15 14:52:52;;;;;;;;;;;;;;;;;;5066749;28;20897;-86
2022/11/15 14:55:20;;;;;;;;;;;;;;;;;;5089925;27;19928;-86
2022/11/15 14:57:47;;;;;;;;;;;;;;;;;;5076682;28;20687;-90
2022/11/15 15:00:15;;;;;;;;;;;;;;;;;;5058163;28;19935;-87
2022/11/15 15:02:42;;;;;;;;;;;;;;;;;;5051804;28;19935;-87
2022/11/15 15:05:15;;;;;;;;;;;;;;;;;;5082295;28;19939;-87
2022/11/15 15:07:47;;;;;;;;;;;;;;;;;;5045039;28;19928;-85
2022/11/15 15:10:15;;;;;;;;;;;;;;;;;;5061398;28;19935;-86
2022/11/15 15:12:42;;;;;;;;;;;;;;;;;;5063880;28;19999;-85
2022/11/15 15:15:10;;;;;;;;;;;;;;;;;;5052747;28;19927;-88
2022/11/15 15:17:37;;;;;;;;;;;;;;;;;;5079896;28;19924;-87
2022/11/15 15:20:10;;;;;;;;;;;;;;;;;;5054006;28;19920;-87
2022/11/15 15:22:37;;;;;;;;;;;;;;;;;;5046410;28;20600;-87
2022/11/15 15:25:05;;;;;;;;;;;;;;;;;;5072935;28;20633;-86
2022/11/15 15:27:33;;;;;;;;;;;;;;;;;;5051929;28;19927;-87
2022/11/15 15:30:05;;;;;;;;;;;;;;;;;;5053273;28;19935;-87
2022/11/15 15:32:33;;;;;;;;;;;;;;;;;;5056868;28;19924;-87
2022/11/15 15:35:00;;;;;;;;;;;;;;;;;;5087020;27;20836;-86
2022/11/15 15:37:33;;;;;;;;;;;;;;;;;;5073326;28;19935;-87
2022/11/15 15:40:05;;;;;;;;;;;;;;;;;;5052596;28;20287;-87
2022/11/15 15:42:38;;;;;;;;;;;;;;;;;;5074251;28;19951;-85
2022/11/15 15:45:06;;;;;;;;;;;;;;;;;;5095317;28;19920;-87
2022/11/15 15:47:33;;;;;;;;;;;;;;;;;;5074688;28;19928;-88
2022/11/15 15:50:01;;;;;;;;;;;;;;;;;;5072646;28;19920;-88
2022/11/15 15:52:28;;;;;;;;;;;;;;;;;;5059942;28;19935;-85
2022/11/15 15:54:56;;;;;;;;;;;;;;;;;;5056494;28;19927;-85
2022/11/15 15:57:23;;;;;;;;;;;;;;;;;;5055259;28;19939;-88
2022/11/15 15:59:51;;;;;;;;;;;;;;;;;;5059060;28;19928;-85
2022/11/15 16:02:18;;;;;;;;;;;;;;;;;;5058548;28;19935;-85
2022/11/15 16:04:46;;;;;;;;;;;;;;;;;;5055692;28;20014;-88
2022/11/15 16:07:13;;;;;;;;;;;;;;;;;;5089180;28;19928;-87
2022/11/15 16:10:01;;;;;;;;;;;;;;;;;;5054611;28;19927;-88
2022/11/15 16:12:29;;;;;;;;;;;;;;;;;;5092865;28;19943;-87
2022/11/15 16:14:56;;;;;;;;;;;;;;;;;;5059354;28;20388;-86
2022/11/15 16:17:24;;;;;;;;;;;;;;;;;;5054574;28;19928;-86
2022/11/15 16:19:57;;;;;;;;;;;;;;;;;;5070483;28;19928;-88
2022/11/15 16:22:24;;;;;;;;;;;;;;;;;;5063384;28;19928;-87
2022/11/15 16:24:57;;;;;;;;;;;;;;;;;;5053351;28;19928;-86
2022/11/15 16:27:24;;;;;;;;;;;;;;;;;;5075235;28;19934;-88
2022/11/15 16:29:57;;;;;;;;;;;;;;;;;;5090153;28;19919;-86
2022/11/15 16:32:29;;;;;;;;;;;;;;;;;;5067982;28;19920;-87
2022/11/15 16:35:02;;;;;;;;;;;;;;;;;;5056597;28;20288;-86
2022/11/15 16:37:30;;;;;;;;;;;;;;;;;;5086885;28;19928;-88
2022/11/15 16:39:58;;;;;;;;;;;;;;;;;;5068202;28;19927;-85
2022/11/15 16:42:25;;;;;;;;;;;;;;;;;;5069609;28;19943;-88
2022/11/15 16:44:53;;;;;;;;;;;;;;;;;;5058522;28;19928;-86
2022/11/15 16:47:25;;;;;;;;;;;;;;;;;;5068838;28;20619;-86
2022/11/15 16:49:58;;;;;;;;;;;;;;;;;;5056937;28;19927;-83
2022/11/15 16:52:25;;;;;;;;;;;;;;;;;;5071831;28;19936;-90
2022/11/15 16:54:53;;;;;;;;;;;;;;;;;;5048406;28;19928;-84
2022/11/15 16:57:20;;;;;;;;;;;;;;;;;;5052446;28;19928;-84
2022/11/15 16:59:48;;;;;;;;;;;;;;;;;;5052120;28;19935;-85
2022/11/15 17:02:16;;;;;;;;;;;;;;;;;;5056190;28;19927;-88
2022/11/15 17:04:43;;;;;;;;;;;;;;;;;;5054429;28;19924;-85
2022/11/15 17:07:16;;;;;;;;;;;;;;;;;;5060662;28;20594;-82
2022/11/15 17:09:43;;;;;;;;;;;;;;;;;;5051586;28;19928;-83
2022/11/15 17:12:11;;;;;;;;;;;;;;;;;;5047712;28;20862;-86
2022/11/15 17:14:44;;;;;;;;;;;;;;;;;;5088968;28;20291;-88
2022/11/15 17:17:17;;;;;;;;;;;;;;;;;;5072372;28;21016;-84
2022/11/15 17:19:44;;;;;;;;;;;;;;;;;;5045832;28;19935;-88
2022/11/15 17:22:17;;;;;;;;;;;;;;;;;;5035322;28;19935;-86
2022/11/15 17:24:44;;;;;;;;;;;;;;;;;;5072344;28;19928;-87
2022/11/15 17:27:12;;;;;;;;;;;;;;;;;;5053520;28;21399;-86
2022/11/15 17:29:44;;;;;;;;;;;;;;;;;;5066502;28;20663;-85
2022/11/15 17:32:12;;;;;;;;;;;;;;;;;;5079568;28;19935;-82
2022/11/15 17:34:39;;;;;;;;;;;;;;;;;;5057363;28;19928;-82
2022/11/15 17:37:07;;;;;;;;;;;;;;;;;;5050799;28;19927;-86
2022/11/15 17:39:39;;;;;;;;;;;;;;;;;;5064288;28;19932;-88
2022/11/15 17:42:07;;;;;;;;;;;;;;;;;;5057560;28;19935;-83
2022/11/15 17:44:39;;;;;;;;;;;;;;;;;;5061634;28;19928;-88
2022/11/15 17:47:07;;;;;;;;;;;;;;;;;;5067464;28;19950;-84
2022/11/15 17:49:39;;;;;;;;;;;;;;;;;;5047599;28;19938;-86
2022/11/15 17:52:07;;;;;;;;;;;;;;;;;;5073434;28;19928;-87
2022/11/15 17:54:35;;;;;;;;;;;;;;;;;;5059015;28;19928;-83
2022/11/15 17:57:02;;;;;;;;;;;;;;;;;;5077010;28;20360;-83
2022/11/15 17:59:35;;;;;;;;;;;;;;;;;;5061802;28;19920;-82
2022/11/15 18:02:02;;;;;;;;;;;;;;;;;;5073079;28;19935;-86
2022/11/15 18:04:30;;;;;;;;;;;;;;;;;;5071700;28;19928;-88
2022/11/15 18:06:57;;;;;;;;;;;;;;;;;;5057715;28;19936;-88
2022/11/15 18:09:25;;;;;;;;;;;;;;;;;;5054824;28;19928;-82
2022/11/15 18:11:53;;;;;;;;;;;;;;;;;;5074425;28;19932;-89